Sand Lake, Minnesota
Current Conditions -  °F | °C
As of 5:33 AM on Sunday 21 Dec 2014 (Local Time) from KFOZ Reporting Station
Unknown Precip Unknown Precip  
Wind Chill: 19°   Ceiling: 400
Heat Index: 28°   Visibility: 5mi
Dew Point: 27°   Wind: 10mph
Humidity: 93%   Direction: 160°SSE
Pressure: 29.83"   Gusts: NA
Location:  47.5934°N, 93.8397°W
Report Text: KFOZ 211133Z AUTO 16009KT 5SM UP OVC004 M02/M03 A2983 RMK AO2
Loading
Personal Weather Stations






























Interactive Weather Map New forecast layout! Learn more

10-Day Weather Forecast

Advertisements
Track Severe Weather on mobile